KAIZ/AIZ METAR and TAF weather

Enter ICAO airport designator
Station Type Date Time Source
KAIZ METAR 2022/01/26 07:56 UTC NOAA

KAIZ 260756Z AUTO 03005KT CLR M11/M17 A3053 RMK AO2 SLP350 T11061167 FZRANO $


Station Type Date Time Source
KAIZ Decoded METAR 2022/01/26 07:56 UTC NOAA

Kaiser Lake Ozark, Lee C Fine Memorial Airport, MO, United States (KAIZ) 38-06N 092-33W
Jan 26, 2022 - 02:56 AM EST / 2022.01.26 0756 UTC
Wind: from the NNE (030 degrees) at 6 MPH (5 KT):0
Sky conditions: clear
Temperature: 12.9 F (-10.6 C)
Windchill: 3 F (-16 C):1
Dew Point: 1.9 F (-16.7 C)
Relative Humidity: 60%
Pressure (altimeter): 30.53 in. Hg (1033 hPa)
ob: KAIZ 260756Z AUTO 03005KT CLR M11/M17 A3053 RMK AO2 SLP350 T11061167 FZRANO
cycle: 8

Station Type Date Time Source
KAIZ TAF UTC NOAA

Error!

Example: see airport list